sensor_id;sensor_type;location;lat;lon;timestamp;pressure;altitude;pressure_sealevel;temperature;humidity
11198;BME280;5655;48.744;9.162;2022-11-20T00:01:06;95569.72;;;7.10;100.00
11198;BME280;5655;48.744;9.162;2022-11-20T00:03:32;95570.75;;;7.02;100.00
11198;BME280;5655;48.744;9.162;2022-11-20T00:06:02;95583.09;;;7.13;100.00
11198;BME280;5655;48.744;9.162;2022-11-20T00:08:28;95577.31;;;6.81;100.00
11198;BME280;5655;48.744;9.162;2022-11-20T00:10:53;95579.56;;;7.06;100.00
11198;BME280;5655;48.744;9.162;2022-11-20T00:13:19;95570.34;;;7.00;100.00
11198;BME280;5655;48.744;9.162;2022-11-20T00:15:44;95570.97;;;6.90;100.00
11198;BME280;5655;48.744;9.162;2022-11-20T00:18:09;95581.91;;;7.11;100.00
11198;BME280;5655;48.744;9.162;2022-11-20T00:20:34;95583.19;;;6.94;100.00
11198;BME280;5655;48.744;9.162;2022-11-20T00:23:00;95580.28;;;7.03;100.00
11198;BME280;5655;48.744;9.162;2022-11-20T00:25:25;95584.06;;;7.02;100.00
11198;BME280;5655;48.744;9.162;2022-11-20T00:27:50;95580.44;;;7.13;100.00
11198;BME280;5655;48.744;9.162;2022-11-20T00:30:16;95586.16;;;7.42;100.00
11198;BME280;5655;48.744;9.162;2022-11-20T00:32:41;95581.53;;;7.39;100.00
11198;BME280;5655;48.744;9.162;2022-11-20T00:35:06;95579.03;;;7.23;100.00
11198;BME280;5655;48.744;9.162;2022-11-20T00:37:32;95583.34;;;7.05;100.00
11198;BME280;5655;48.744;9.162;2022-11-20T00:39:57;95576.59;;;7.11;100.00
11198;BME280;5655;48.744;9.162;2022-11-20T00:42:22;95571.50;;;6.99;100.00
11198;BME280;5655;48.744;9.162;2022-11-20T00:44:48;95568.63;;;6.84;100.00
11198;BME280;5655;48.744;9.162;2022-11-20T00:47:13;95574.75;;;6.89;100.00
11198;BME280;5655;48.744;9.162;2022-11-20T00:49:38;95581.81;;;7.04;100.00
11198;BME280;5655;48.744;9.162;2022-11-20T00:52:04;95577.81;;;6.91;100.00
11198;BME280;5655;48.744;9.162;2022-11-20T00:54:29;95581.81;;;7.04;100.00
11198;BME280;5655;48.744;9.162;2022-11-20T00:56:54;95580.97;;;7.00;100.00
11198;BME280;5655;48.744;9.162;2022-11-20T00:59:20;95583.13;;;6.91;100.00
11198;BME280;5655;48.744;9.162;2022-11-20T01:01:45;95581.09;;;7.07;100.00
11198;BME280;5655;48.744;9.162;2022-11-20T01:04:10;95583.63;;;7.26;100.00
11198;BME280;5655;48.744;9.162;2022-11-20T01:06:38;95576.63;;;7.14;100.00
11198;BME280;5655;48.744;9.162;2022-11-20T01:09:07;95573.44;;;7.02;100.00
11198;BME280;5655;48.744;9.162;2022-11-20T01:11:38;95578.13;;;7.12;100.00
11198;BME280;5655;48.744;9.162;2022-11-20T01:14:07;95583.34;;;7.05;100.00
11198;BME280;5655;48.744;9.162;2022-11-20T01:16:36;95574.75;;;6.89;100.00
11198;BME280;5655;48.744;9.162;2022-11-20T01:19:04;95581.69;;;6.70;100.00
11198;BME280;5655;48.744;9.162;2022-11-20T01:21:41;95589.16;;;6.88;100.00
11198;BME280;5655;48.744;9.162;2022-11-20T01:24:08;95595.25;;;6.88;100.00
11198;BME280;5655;48.744;9.162;2022-11-20T01:26:37;95601.44;;;6.96;100.00
11198;BME280;5655;48.744;9.162;2022-11-20T01:29:03;95593.88;;;6.71;100.00
11198;BME280;5655;48.744;9.162;2022-11-20T01:31:31;95594.88;;;6.63;100.00
11198;BME280;5655;48.744;9.162;2022-11-20T01:34:00;95603.97;;;6.62;100.00
11198;BME280;5655;48.744;9.162;2022-11-20T01:36:28;95602.44;;;6.61;100.00
11198;BME280;5655;48.744;9.162;2022-11-20T01:38:59;95606.75;;;6.96;100.00
11198;BME280;5655;48.744;9.162;2022-11-20T01:41:27;95604.69;;;6.59;100.00
11198;BME280;5655;48.744;9.162;2022-11-20T01:44:13;95599.66;;;6.77;100.00
11198;BME280;5655;48.744;9.162;2022-11-20T01:46:43;95590.47;;;6.74;100.00
11198;BME280;5655;48.744;9.162;2022-11-20T01:49:24;95597.28;;;6.72;100.00
11198;BME280;5655;48.744;9.162;2022-11-20T01:51:57;95591.56;;;6.47;100.00
11198;BME280;5655;48.744;9.162;2022-11-20T01:54:34;95590.72;;;6.43;100.00
11198;BME280;5655;48.744;9.162;2022-11-20T01:57:01;95592.44;;;6.32;100.00
11198;BME280;5655;48.744;9.162;2022-11-20T01:59:29;95595.22;;;6.39;100.00
11198;BME280;5655;48.744;9.162;2022-11-20T02:01:55;95585.03;;;6.22;100.00
11198;BME280;5655;48.744;9.162;2022-11-20T02:04:21;95593.25;;;6.13;100.00
11198;BME280;5655;48.744;9.162;2022-11-20T02:07:00;95591.91;;;6.23;100.00
11198;BME280;5655;48.744;9.162;2022-11-20T02:09:26;95603.19;;;6.16;100.00
11198;BME280;5655;48.744;9.162;2022-11-20T02:11:52;95601.16;;;6.10;100.00
11198;BME280;5655;48.744;9.162;2022-11-20T02:14:18;95592.22;;;5.99;100.00
11198;BME280;5655;48.744;9.162;2022-11-20T02:16:46;95596.28;;;5.92;100.00
11198;BME280;5655;48.744;9.162;2022-11-20T02:19:30;95600.31;;;6.25;100.00
11198;BME280;5655;48.744;9.162;2022-11-20T02:24:26;95601.69;;;6.19;100.00
11198;BME280;5655;48.744;9.162;2022-11-20T02:27:08;95602.97;;;6.25;100.00
11198;BME280;5655;48.744;9.162;2022-11-20T02:29:39;95605.47;;;6.18;100.00
11198;BME280;5655;48.744;9.162;2022-11-20T02:32:05;95602.91;;;6.02;100.00
11198;BME280;5655;48.744;9.162;2022-11-20T02:34:31;95603.81;;;6.10;100.00
11198;BME280;5655;48.744;9.162;2022-11-20T02:36:57;95604.53;;;6.07;100.00
11198;BME280;5655;48.744;9.162;2022-11-20T02:41:56;95602.78;;;6.37;100.00
11198;BME280;5655;48.744;9.162;2022-11-20T02:44:22;95606.97;;;6.15;100.00
11198;BME280;5655;48.744;9.162;2022-11-20T02:46:47;95609.66;;;6.38;100.00
11198;BME280;5655;48.744;9.162;2022-11-20T02:49:12;95608.09;;;6.37;100.00
11198;BME280;5655;48.744;9.162;2022-11-20T02:51:38;95598.13;;;6.53;100.00
11198;BME280;5655;48.744;9.162;2022-11-20T02:54:03;95603.63;;;6.41;100.00
11198;BME280;5655;48.744;9.162;2022-11-20T02:56:29;95599.13;;;6.45;100.00
11198;BME280;5655;48.744;9.162;2022-11-20T02:58:54;95602.03;;;6.59;100.00
11198;BME280;5655;48.744;9.162;2022-11-20T03:01:20;95604.41;;;6.64;100.00
11198;BME280;5655;48.744;9.162;2022-11-20T03:03:45;95600.25;;;6.67;100.00
11198;BME280;5655;48.744;9.162;2022-11-20T03:06:13;95598.88;;;6.31;100.00
11198;BME280;5655;48.744;9.162;2022-11-20T03:08:38;95608.28;;;6.25;100.00
11198;BME280;5655;48.744;9.162;2022-11-20T03:11:06;95600.31;;;6.25;100.00
11198;BME280;5655;48.744;9.162;2022-11-20T03:13:32;95602.78;;;6.37;100.00
11198;BME280;5655;48.744;9.162;2022-11-20T03:15:57;95610.59;;;6.49;100.00
11198;BME280;5655;48.744;9.162;2022-11-20T03:18:23;95600.72;;;6.50;100.00
11198;BME280;5655;48.744;9.162;2022-11-20T03:20:48;95598.34;;;6.45;100.00
11198;BME280;5655;48.744;9.162;2022-11-20T03:23:13;95596.31;;;6.15;100.00
11198;BME280;5655;48.744;9.162;2022-11-20T03:25:39;95595.16;;;5.93;100.00
11198;BME280;5655;48.744;9.162;2022-11-20T03:28:04;95603.41;;;6.30;100.00
11198;BME280;5655;48.744;9.162;2022-11-20T03:30:29;95598.19;;;6.34;100.00
11198;BME280;5655;48.744;9.162;2022-11-20T03:32:54;95592.19;;;6.18;100.00
11198;BME280;5655;48.744;9.162;2022-11-20T03:35:20;95591.63;;;6.28;100.00
11198;BME280;5655;48.744;9.162;2022-11-20T03:37:45;95582.72;;;6.17;100.00
11198;BME280;5655;48.744;9.162;2022-11-20T03:40:11;95586.00;;;6.33;100.00
11198;BME280;5655;48.744;9.162;2022-11-20T03:42:36;95588.69;;;6.14;100.00
11198;BME280;5655;48.744;9.162;2022-11-20T03:45:11;95584.09;;;6.11;100.00
11198;BME280;5655;48.744;9.162;2022-11-20T03:47:37;95584.50;;;6.13;100.00
11198;BME280;5655;48.744;9.162;2022-11-20T03:50:03;95593.91;;;6.07;100.00
11198;BME280;5655;48.744;9.162;2022-11-20T03:52:28;95592.91;;;5.96;100.00
11198;BME280;5655;48.744;9.162;2022-11-20T03:54:54;95590.19;;;6.11;100.00
11198;BME280;5655;48.744;9.162;2022-11-20T03:57:19;95580.78;;;5.95;100.00
11198;BME280;5655;48.744;9.162;2022-11-20T03:59:44;95598.63;;;5.78;100.00
11198;BME280;5655;48.744;9.162;2022-11-20T04:02:10;95589.00;;;5.70;100.00
11198;BME280;5655;48.744;9.162;2022-11-20T04:04:35;95592.34;;;6.06;100.00
11198;BME280;5655;48.744;9.162;2022-11-20T04:07:00;95584.53;;;5.93;100.00
11198;BME280;5655;48.744;9.162;2022-11-20T04:09:25;95588.09;;;5.82;100.00
11198;BME280;5655;48.744;9.162;2022-11-20T04:11:51;95579.50;;;5.69;100.00
11198;BME280;5655;48.744;9.162;2022-11-20T04:14:16;95581.47;;;5.72;100.00
11198;BME280;5655;48.744;9.162;2022-11-20T04:16:42;95585.34;;;5.78;100.00
11198;BME280;5655;48.744;9.162;2022-11-20T04:19:13;95583.72;;;5.89;100.00
11198;BME280;5655;48.744;9.162;2022-11-20T04:21:39;95576.56;;;5.55;100.00
11198;BME280;5655;48.744;9.162;2022-11-20T04:24:05;95576.31;;;5.60;100.00
11198;BME280;5655;48.744;9.162;2022-11-20T04:26:31;95577.13;;;5.64;100.00
11198;BME280;5655;48.744;9.162;2022-11-20T04:28:57;95580.78;;;5.56;100.00
11198;BME280;5655;48.744;9.162;2022-11-20T04:31:25;95577.09;;;5.83;100.00
11198;BME280;5655;48.744;9.162;2022-11-20T04:33:51;95569.16;;;5.64;100.00
11198;BME280;5655;48.744;9.162;2022-11-20T04:36:26;95575.38;;;5.53;100.00
11198;BME280;5655;48.744;9.162;2022-11-20T04:38:53;95576.84;;;5.50;100.00
11198;BME280;5655;48.744;9.162;2022-11-20T04:41:21;95573.47;;;5.53;100.00
11198;BME280;5655;48.744;9.162;2022-11-20T04:43:51;95572.81;;;5.95;100.00
11198;BME280;5655;48.744;9.162;2022-11-20T04:46:18;95575.47;;;5.95;100.00
11198;BME280;5655;48.744;9.162;2022-11-20T04:48:44;95577.47;;;5.63;100.00
11198;BME280;5655;48.744;9.162;2022-11-20T04:51:09;95572.22;;;5.85;100.00
11198;BME280;5655;48.744;9.162;2022-11-20T04:53:35;95567.53;;;5.79;100.00
11198;BME280;5655;48.744;9.162;2022-11-20T04:56:05;95575.59;;;6.02;100.00
11198;BME280;5655;48.744;9.162;2022-11-20T04:58:31;95576.38;;;5.64;100.00
11198;BME280;5655;48.744;9.162;2022-11-20T05:01:12;95570.84;;;5.91;100.00
11198;BME280;5655;48.744;9.162;2022-11-20T05:03:41;95566.91;;;5.85;100.00
11198;BME280;5655;48.744;9.162;2022-11-20T05:06:08;95565.72;;;5.83;100.00
11198;BME280;5655;48.744;9.162;2022-11-20T05:08:34;95565.13;;;5.89;100.00
11198;BME280;5655;48.744;9.162;2022-11-20T05:11:04;95559.47;;;5.91;100.00
11198;BME280;5655;48.744;9.162;2022-11-20T05:13:30;95567.53;;;5.79;100.00
11198;BME280;5655;48.744;9.162;2022-11-20T05:16:00;95555.25;;;5.71;100.00
11198;BME280;5655;48.744;9.162;2022-11-20T05:18:25;95564.13;;;5.98;100.00
11198;BME280;5655;48.744;9.162;2022-11-20T05:20:55;95561.59;;;5.85;100.00
11198;BME280;5655;48.744;9.162;2022-11-20T05:23:21;95569.88;;;6.22;100.00
11198;BME280;5655;48.744;9.162;2022-11-20T05:25:46;95567.41;;;6.10;100.00
11198;BME280;5655;48.744;9.162;2022-11-20T05:28:11;95570.16;;;5.95;100.00
11198;BME280;5655;48.744;9.162;2022-11-20T05:30:36;95565.78;;;6.06;100.00
11198;BME280;5655;48.744;9.162;2022-11-20T05:33:02;95564.78;;;6.14;100.00
11198;BME280;5655;48.744;9.162;2022-11-20T05:35:27;95570.88;;;6.14;100.00
11198;BME280;5655;48.744;9.162;2022-11-20T05:37:52;95568.66;;;6.16;100.00
11198;BME280;5655;48.744;9.162;2022-11-20T05:40:18;95566.78;;;5.98;100.00
11198;BME280;5655;48.744;9.162;2022-11-20T05:42:43;95558.09;;;6.01;100.00
11198;BME280;5655;48.744;9.162;2022-11-20T05:45:09;95567.28;;;6.26;100.00
11198;BME280;5655;48.744;9.162;2022-11-20T05:47:34;95568.78;;;6.46;100.00
11198;BME280;5655;48.744;9.162;2022-11-20T05:50:00;95565.75;;;6.48;100.00
11198;BME280;5655;48.744;9.162;2022-11-20T05:52:29;95570.19;;;6.40;100.00
11198;BME280;5655;48.744;9.162;2022-11-20T05:54:54;95555.38;;;6.16;100.00
11198;BME280;5655;48.744;9.162;2022-11-20T05:57:20;95567.22;;;6.22;100.00
11198;BME280;5655;48.744;9.162;2022-11-20T05:59:45;95572.44;;;6.38;100.00
11198;BME280;5655;48.744;9.162;2022-11-20T06:02:10;95569.78;;;6.38;100.00
11198;BME280;5655;48.744;9.162;2022-11-20T06:04:36;95564.03;;;6.36;100.00
11198;BME280;5655;48.744;9.162;2022-11-20T06:07:01;95569.53;;;6.24;100.00
11198;BME280;5655;48.744;9.162;2022-11-20T06:09:26;95567.38;;;6.29;100.00
11198;BME280;5655;48.744;9.162;2022-11-20T06:11:52;95565.34;;;6.46;100.00
11198;BME280;5655;48.744;9.162;2022-11-20T06:14:17;95568.78;;;6.46;100.00
11198;BME280;5655;48.744;9.162;2022-11-20T06:16:42;95565.00;;;6.47;100.00
11198;BME280;5655;48.744;9.162;2022-11-20T06:19:08;95566.66;;;6.55;100.00
11198;BME280;5655;48.744;9.162;2022-11-20T06:21:33;95569.41;;;6.62;100.00
11198;BME280;5655;48.744;9.162;2022-11-20T06:23:58;95564.38;;;6.57;100.00
11198;BME280;5655;48.744;9.162;2022-11-20T06:26:26;95573.22;;;6.88;100.00
11198;BME280;5655;48.744;9.162;2022-11-20T06:28:52;95567.94;;;6.42;100.00
11198;BME280;5655;48.744;9.162;2022-11-20T06:31:20;95568.25;;;6.60;100.00
11198;BME280;5655;48.744;9.162;2022-11-20T06:33:46;95561.25;;;6.52;100.00
11198;BME280;5655;48.744;9.162;2022-11-20T06:36:13;95551.56;;;6.63;100.00
11198;BME280;5655;48.744;9.162;2022-11-20T06:38:39;95565.72;;;6.70;100.00
11198;BME280;5655;48.744;9.162;2022-11-20T06:41:06;95557.03;;;6.47;100.00
11198;BME280;5655;48.744;9.162;2022-11-20T06:43:31;95559.50;;;6.36;100.00
11198;BME280;5655;48.744;9.162;2022-11-20T06:45:58;95562.16;;;6.59;100.00
11198;BME280;5655;48.744;9.162;2022-11-20T06:48:25;95566.16;;;6.72;100.00
11198;BME280;5655;48.744;9.162;2022-11-20T06:50:51;95565.00;;;6.47;100.00
11198;BME280;5655;48.744;9.162;2022-11-20T06:53:16;95563.38;;;6.65;100.00
11198;BME280;5655;48.744;9.162;2022-11-20T06:55:43;95563.47;;;6.46;100.00
11198;BME280;5655;48.744;9.162;2022-11-20T06:58:09;95567.34;;;6.52;100.00
11198;BME280;5655;48.744;9.162;2022-11-20T07:00:34;95571.16;;;6.77;100.00
11198;BME280;5655;48.744;9.162;2022-11-20T07:03:03;95573.94;;;6.84;100.00
11198;BME280;5655;48.744;9.162;2022-11-20T07:05:28;95578.97;;;6.67;100.00
11198;BME280;5655;48.744;9.162;2022-11-20T07:07:56;95578.34;;;6.51;100.00
11198;BME280;5655;48.744;9.162;2022-11-20T07:10:21;95577.75;;;6.38;100.00
11198;BME280;5655;48.744;9.162;2022-11-20T07:12:50;95573.59;;;6.63;100.00
11198;BME280;5655;48.744;9.162;2022-11-20T07:15:17;95586.47;;;6.61;100.00
11198;BME280;5655;48.744;9.162;2022-11-20T07:17:42;95572.72;;;6.56;100.00
11198;BME280;5655;48.744;9.162;2022-11-20T07:20:08;95566.66;;;6.55;100.00
11198;BME280;5655;48.744;9.162;2022-11-20T07:22:33;95583.22;;;6.49;100.00
11198;BME280;5655;48.744;9.162;2022-11-20T07:24:58;95571.34;;;6.65;100.00
11198;BME280;5655;48.744;9.162;2022-11-20T07:27:24;95570.41;;;6.54;100.00
11198;BME280;5655;48.744;9.162;2022-11-20T07:29:49;95577.72;;;6.83;100.00
11198;BME280;5655;48.744;9.162;2022-11-20T07:32:14;95579.91;;;6.78;100.00
11198;BME280;5655;48.744;9.162;2022-11-20T07:34:40;95586.25;;;6.47;100.00
11198;BME280;5655;48.744;9.162;2022-11-20T07:37:05;95584.19;;;6.60;100.00
11198;BME280;5655;48.744;9.162;2022-11-20T07:39:30;95584.81;;;6.53;100.00
11198;BME280;5655;48.744;9.162;2022-11-20T07:41:55;95590.44;;;6.48;100.00
11198;BME280;5655;48.744;9.162;2022-11-20T07:44:21;95582.94;;;6.76;100.00
11198;BME280;5655;48.744;9.162;2022-11-20T07:46:46;95585.09;;;6.94;100.00
11198;BME280;5655;48.744;9.162;2022-11-20T07:49:11;95581.97;;;6.65;100.00
11198;BME280;5655;48.744;9.162;2022-11-20T07:51:36;95587.72;;;6.67;100.00
11198;BME280;5655;48.744;9.162;2022-11-20T07:54:02;95586.94;;;6.90;100.00
11198;BME280;5655;48.744;9.162;2022-11-20T07:56:27;95590.56;;;7.04;100.00
11198;BME280;5655;48.744;9.162;2022-11-20T07:58:52;95593.38;;;6.89;100.00
11198;BME280;5655;48.744;9.162;2022-11-20T08:01:18;95595.31;;;6.92;100.00
11198;BME280;5655;48.744;9.162;2022-11-20T08:03:43;95589.00;;;7.03;100.00
11198;BME280;5655;48.744;9.162;2022-11-20T08:06:08;95600.72;;;7.25;100.00
11198;BME280;5655;48.744;9.162;2022-11-20T08:08:34;95597.72;;;7.00;100.00
11198;BME280;5655;48.744;9.162;2022-11-20T08:10:59;95601.44;;;6.96;100.00
11198;BME280;5655;48.744;9.162;2022-11-20T08:13:43;95608.22;;;7.16;100.00
11198;BME280;5655;48.744;9.162;2022-11-20T08:16:28;95604.97;;;7.03;100.00
11198;BME280;5655;48.744;9.162;2022-11-20T08:18:54;95608.31;;;7.23;100.00
11198;BME280;5655;48.744;9.162;2022-11-20T08:21:19;95612.47;;;7.20;100.00
11198;BME280;5655;48.744;9.162;2022-11-20T08:23:44;95613.41;;;7.35;100.00
11198;BME280;5655;48.744;9.162;2022-11-20T08:26:10;95614.25;;;7.39;100.00
11198;BME280;5655;48.744;9.162;2022-11-20T08:28:35;95616.59;;;7.44;100.00
11198;BME280;5655;48.744;9.162;2022-11-20T08:31:01;95619.06;;;7.30;100.00
11198;BME280;5655;48.744;9.162;2022-11-20T08:33:27;95611.50;;;7.32;100.00
11198;BME280;5655;48.744;9.162;2022-11-20T08:35:53;95622.19;;;7.36;100.00
11198;BME280;5655;48.744;9.162;2022-11-20T08:38:18;95611.63;;;7.16;100.00
11198;BME280;5655;48.744;9.162;2022-11-20T08:40:43;95615.06;;;7.43;100.00
11198;BME280;5655;48.744;9.162;2022-11-20T08:43:31;95610.97;;;7.23;100.00
11198;BME280;5655;48.744;9.162;2022-11-20T08:45:57;95612.00;;;7.41;100.00
11198;BME280;5655;48.744;9.162;2022-11-20T08:48:22;95612.91;;;7.52;100.00
11198;BME280;5655;48.744;9.162;2022-11-20T08:50:48;95622.00;;;7.51;100.00
11198;BME280;5655;48.744;9.162;2022-11-20T08:53:13;95617.91;;;7.57;100.00
11198;BME280;5655;48.744;9.162;2022-11-20T08:55:38;95622.69;;;7.74;100.00
11198;BME280;5655;48.744;9.162;2022-11-20T08:58:05;95606.22;;;7.65;100.00
11198;BME280;5655;48.744;9.162;2022-11-20T09:00:30;95626.16;;;7.79;100.00
11198;BME280;5655;48.744;9.162;2022-11-20T09:02:57;95627.84;;;7.60;100.00
11198;BME280;5655;48.744;9.162;2022-11-20T09:05:23;95625.13;;;7.87;100.00
11198;BME280;5655;48.744;9.162;2022-11-20T09:07:49;95634.22;;;7.56;100.00
11198;BME280;5655;48.744;9.162;2022-11-20T09:10:14;95624.75;;;7.88;100.00
11198;BME280;5655;48.744;9.162;2022-11-20T09:12:39;95632.22;;;7.75;100.00
11198;BME280;5655;48.744;9.162;2022-11-20T09:15:05;95634.09;;;8.05;100.00
11198;BME280;5655;48.744;9.162;2022-11-20T09:17:30;95635.28;;;7.78;100.00
11198;BME280;5655;48.744;9.162;2022-11-20T09:19:55;95634.44;;;7.70;100.00
11198;BME280;5655;48.744;9.162;2022-11-20T09:22:21;95638.47;;;7.90;100.00
11198;BME280;5655;48.744;9.162;2022-11-20T09:24:46;95641.84;;;7.84;100.00
11198;BME280;5655;48.744;9.162;2022-11-20T09:27:11;95645.69;;;7.90;100.00
11198;BME280;5655;48.744;9.162;2022-11-20T09:29:37;95644.50;;;7.84;100.00
11198;BME280;5655;48.744;9.162;2022-11-20T09:32:02;95645.69;;;7.90;100.00
11198;BME280;5655;48.744;9.162;2022-11-20T09:34:27;95644.63;;;7.94;100.00
11198;BME280;5655;48.744;9.162;2022-11-20T09:36:53;95649.44;;;8.15;100.00
11198;BME280;5655;48.744;9.162;2022-11-20T09:39:19;95647.78;;;8.03;100.00
11198;BME280;5655;48.744;9.162;2022-11-20T09:55:38;95657.59;;;7.96;100.00
11198;BME280;5655;48.744;9.162;2022-11-20T09:58:15;95654.00;;;8.14;100.00
11198;BME280;5655;48.744;9.162;2022-11-20T10:00:45;95646.81;;;7.85;100.00
11198;BME280;5655;48.744;9.162;2022-11-20T10:03:16;95655.34;;;7.98;100.00
11198;BME280;5655;48.744;9.162;2022-11-20T10:05:45;95656.78;;;7.92;100.00
11198;BME280;5655;48.744;9.162;2022-11-20T10:08:28;95649.44;;;8.15;100.00
11198;BME280;5655;48.744;9.162;2022-11-20T10:11:05;95654.28;;;8.06;100.00
11198;BME280;5655;48.744;9.162;2022-11-20T10:22:01;95660.25;;;7.66;100.00
11198;BME280;5655;48.744;9.162;2022-11-20T10:29:58;95660.41;;;7.77;100.00
11198;BME280;5655;48.744;9.162;2022-11-20T10:32:33;95661.75;;;7.63;100.00
11198;BME280;5655;48.744;9.162;2022-11-20T10:35:04;95666.44;;;7.73;100.00
11198;BME280;5655;48.744;9.162;2022-11-20T10:37:35;95660.91;;;7.59;100.00
11198;BME280;5655;48.744;9.162;2022-11-20T10:40:20;95667.88;;;7.67;100.00
11198;BME280;5655;48.744;9.162;2022-11-20T10:42:57;95661.91;;;7.78;100.00
11198;BME280;5655;48.744;9.162;2022-11-20T10:47:49;95659.19;;;7.44;100.00
11198;BME280;5655;48.744;9.162;2022-11-20T10:50:19;95660.03;;;7.78;100.00
11198;BME280;5655;48.744;9.162;2022-11-20T10:55:30;95649.09;;;7.87;100.00
11198;BME280;5655;48.744;9.162;2022-11-20T10:58:13;95656.28;;;7.83;100.00
11198;BME280;5655;48.744;9.162;2022-11-20T11:00:39;95651.63;;;7.46;100.00
11198;BME280;5655;48.744;9.162;2022-11-20T11:03:25;95657.00;;;7.80;100.00
11198;BME280;5655;48.744;9.162;2022-11-20T11:06:02;95645.03;;;7.66;100.00
11198;BME280;5655;48.744;9.162;2022-11-20T11:08:35;95651.91;;;7.67;100.00
11198;BME280;5655;48.744;9.162;2022-11-20T11:11:28;95654.63;;;7.71;100.00
11198;BME280;5655;48.744;9.162;2022-11-20T11:13:52;95652.53;;;7.57;100.00
11198;BME280;5655;48.744;9.162;2022-11-20T11:16:23;95656.03;;;7.95;100.00
11198;BME280;5655;48.744;9.162;2022-11-20T11:18:49;95643.44;;;7.92;100.00
11198;BME280;5655;48.744;9.162;2022-11-20T11:21:21;95638.53;;;7.94;100.00
11198;BME280;5655;48.744;9.162;2022-11-20T11:23:58;95635.63;;;8.06;100.00
11198;BME280;5655;48.744;9.162;2022-11-20T11:26:24;95631.09;;;8.10;100.00
11198;BME280;5655;48.744;9.162;2022-11-20T11:29:01;95624.66;;;8.48;100.00
11198;BME280;5655;48.744;9.162;2022-11-20T11:31:32;95616.72;;;8.99;100.00
11198;BME280;5655;48.744;9.162;2022-11-20T11:34:11;95609.50;;;9.65;100.00
11198;BME280;5655;48.744;9.162;2022-11-20T11:36:37;95618.72;;;9.78;100.00
11198;BME280;5655;48.744;9.162;2022-11-20T11:39:05;95631.94;;;10.32;100.00
11198;BME280;5655;48.744;9.162;2022-11-20T11:41:33;95624.38;;;10.84;100.00
11198;BME280;5655;48.744;9.162;2022-11-20T11:44:20;95627.44;;;11.07;100.00
11198;BME280;5655;48.744;9.162;2022-11-20T11:47:21;95630.50;;;10.95;100.00
11198;BME280;5655;48.744;9.162;2022-11-20T11:49:48;95634.31;;;11.29;100.00
11198;BME280;5655;48.744;9.162;2022-11-20T11:52:20;95622.78;;;11.54;100.00
11198;BME280;5655;48.744;9.162;2022-11-20T11:54:53;95621.22;;;11.70;100.00
11198;BME280;5655;48.744;9.162;2022-11-20T11:57:43;95611.97;;;11.93;100.00
11198;BME280;5655;48.744;9.162;2022-11-20T12:00:16;95614.38;;;11.45;100.00
11198;BME280;5655;48.744;9.162;2022-11-20T12:05:20;95615.97;;;11.00;100.00
11198;BME280;5655;48.744;9.162;2022-11-20T12:07:58;95614.44;;;10.74;100.00
11198;BME280;5655;48.744;9.162;2022-11-20T12:13:21;95610.03;;;10.02;100.00
11198;BME280;5655;48.744;9.162;2022-11-20T12:15:51;95606.84;;;9.68;100.00
11198;BME280;5655;48.744;9.162;2022-11-20T12:18:21;95616.56;;;10.05;100.00
11198;BME280;5655;48.744;9.162;2022-11-20T12:27:13;95595.28;;;10.51;100.00
11198;BME280;5655;48.744;9.162;2022-11-20T12:30:13;95593.00;;;11.09;100.00
11198;BME280;5655;48.744;9.162;2022-11-20T12:32:49;95588.41;;;11.24;100.00
11198;BME280;5655;48.744;9.162;2022-11-20T12:40:28;95596.31;;;10.07;100.00
11198;BME280;5655;48.744;9.162;2022-11-20T12:43:14;95594.28;;;9.76;100.00
11198;BME280;5655;48.744;9.162;2022-11-20T12:54:48;95603.38;;;11.00;100.00
11198;BME280;5655;48.744;9.162;2022-11-20T12:59:58;95603.28;;;10.29;100.00
11198;BME280;5655;48.744;9.162;2022-11-20T13:02:37;95589.16;;;10.39;100.00
11198;BME280;5655;48.744;9.162;2022-11-20T13:05:19;95596.75;;;10.23;100.00
11198;BME280;5655;48.744;9.162;2022-11-20T13:07:49;95591.31;;;9.95;100.00
11198;BME280;5655;48.744;9.162;2022-11-20T13:10:38;95590.56;;;10.01;100.00
11198;BME280;5655;48.744;9.162;2022-11-20T13:13:15;95597.41;;;9.92;100.00
11198;BME280;5655;48.744;9.162;2022-11-20T13:15:50;95618.97;;;10.34;100.00
11198;BME280;5655;48.744;9.162;2022-11-20T13:18:18;95597.03;;;9.97;100.00
11198;BME280;5655;48.744;9.162;2022-11-20T13:20:45;95602.00;;;9.95;100.00
11198;BME280;5655;48.744;9.162;2022-11-20T13:23:11;95596.59;;;9.81;100.00
11198;BME280;5655;48.744;9.162;2022-11-20T13:25:38;95590.44;;;9.70;100.00
11198;BME280;5655;48.744;9.162;2022-11-20T13:30:36;95580.41;;;9.45;100.00
11198;BME280;5655;48.744;9.162;2022-11-20T13:33:08;95577.44;;;9.57;100.00
11198;BME280;5655;48.744;9.162;2022-11-20T13:35:53;95574.94;;;9.24;100.00
11198;BME280;5655;48.744;9.162;2022-11-20T13:38:19;95574.34;;;9.59;100.00
11198;BME280;5655;48.744;9.162;2022-11-20T13:40:53;95562.94;;;9.66;100.00
11198;BME280;5655;48.744;9.162;2022-11-20T13:43:26;95572.47;;;9.67;100.00
11198;BME280;5655;48.744;9.162;2022-11-20T13:46:01;95580.19;;;9.82;100.00
11198;BME280;5655;48.744;9.162;2022-11-20T13:48:39;95570.69;;;9.99;100.00
11198;BME280;5655;48.744;9.162;2022-11-20T13:51:26;95572.59;;;9.88;100.00
11198;BME280;5655;48.744;9.162;2022-11-20T14:01:54;95565.69;;;9.11;100.00
11198;BME280;5655;48.744;9.162;2022-11-20T14:04:28;95565.78;;;9.18;100.00
11198;BME280;5655;48.744;9.162;2022-11-20T14:06:55;95558.84;;;9.10;100.00
11198;BME280;5655;48.744;9.162;2022-11-20T14:11:51;95559.50;;;8.93;100.00
11198;BME280;5655;48.744;9.162;2022-11-20T14:14:22;95552.06;;;9.23;100.00
11198;BME280;5655;48.744;9.162;2022-11-20T14:16:48;95562.25;;;9.10;100.00
11198;BME280;5655;48.744;9.162;2022-11-20T14:21:49;95555.69;;;8.94;100.00
11198;BME280;5655;48.744;9.162;2022-11-20T14:24:19;95567.13;;;8.94;100.00
11198;BME280;5655;48.744;9.162;2022-11-20T14:26:46;95562.88;;;8.86;100.00
11198;BME280;5655;48.744;9.162;2022-11-20T14:29:14;95554.03;;;8.75;100.00
11198;BME280;5655;48.744;9.162;2022-11-20T14:31:42;95557.84;;;8.78;100.00
11198;BME280;5655;48.744;9.162;2022-11-20T14:34:25;95562.22;;;9.03;100.00
11198;BME280;5655;48.744;9.162;2022-11-20T14:36:55;95560.06;;;8.65;100.00
11198;BME280;5655;48.744;9.162;2022-11-20T14:39:26;95558.59;;;8.75;100.00